createdAt,value
2018-07-03T00:01:17.534Z,21.80
2018-07-03T00:03:45.868Z,21.80
2018-07-03T00:06:14.248Z,21.80
2018-07-03T00:08:42.593Z,21.70
2018-07-03T00:11:11.152Z,21.70
2018-07-03T00:13:39.535Z,21.60
2018-07-03T00:16:07.990Z,21.60
2018-07-03T00:18:36.385Z,21.60
2018-07-03T00:21:04.974Z,21.60
2018-07-03T00:23:33.372Z,21.60
2018-07-03T00:26:08.390Z,21.60
2018-07-03T00:28:37.378Z,21.50
2018-07-03T00:31:05.793Z,21.50
2018-07-03T00:33:34.204Z,21.50
2018-07-03T00:36:02.648Z,21.50
2018-07-03T00:38:31.049Z,21.40
2018-07-03T00:40:59.421Z,21.40
2018-07-03T00:43:28.019Z,21.40
2018-07-03T00:45:56.509Z,21.40
2018-07-03T00:48:24.904Z,21.40
2018-07-03T00:50:53.300Z,21.30
2018-07-03T00:53:21.695Z,21.30
2018-07-03T00:55:50.061Z,21.30
2018-07-03T00:58:18.420Z,21.30
2018-07-03T01:00:46.891Z,21.20
2018-07-03T01:03:15.548Z,21.20
2018-07-03T01:05:44.116Z,21.20
2018-07-03T01:08:12.652Z,21.10
2018-07-03T01:10:41.029Z,21.20
2018-07-03T01:13:09.723Z,21.10
2018-07-03T01:15:38.092Z,21.00
2018-07-03T01:18:07.006Z,21.00
2018-07-03T01:20:35.461Z,21.00
2018-07-03T01:23:04.018Z,21.00
2018-07-03T01:25:32.503Z,20.90
2018-07-03T01:28:00.924Z,20.90
2018-07-03T01:30:29.413Z,20.90
2018-07-03T01:32:57.933Z,20.80
2018-07-03T01:35:26.380Z,20.80
2018-07-03T01:37:55.203Z,20.70
2018-07-03T01:40:23.614Z,20.70
2018-07-03T01:42:52.241Z,20.60
2018-07-03T01:45:20.639Z,20.60
2018-07-03T01:47:49.016Z,20.60
2018-07-03T01:50:17.387Z,20.60
2018-07-03T01:52:45.752Z,20.50
2018-07-03T01:55:14.137Z,20.50
2018-07-03T01:57:42.725Z,20.50
2018-07-03T02:00:11.092Z,20.40
2018-07-03T02:02:39.455Z,20.40
2018-07-03T02:05:07.803Z,20.30
2018-07-03T02:07:36.165Z,20.30
2018-07-03T02:10:04.813Z,20.20
2018-07-03T02:12:33.270Z,20.20
2018-07-03T02:15:01.733Z,20.20
2018-07-03T02:17:30.134Z,19.60
2018-07-03T02:19:58.605Z,20.10
2018-07-03T02:22:27.108Z,20.10
2018-07-03T02:24:55.569Z,20.00
2018-07-03T02:27:23.915Z,20.00
2018-07-03T02:29:52.224Z,20.00
2018-07-03T02:32:20.514Z,20.00
2018-07-03T02:34:48.872Z,20.00
2018-07-03T02:37:17.153Z,20.00
2018-07-03T02:39:45.448Z,19.90
2018-07-03T02:42:13.788Z,19.90
2018-07-03T02:44:42.083Z,19.80
2018-07-03T02:47:10.416Z,19.80
2018-07-03T02:49:39.121Z,19.80
2018-07-03T02:52:07.445Z,19.80
2018-07-03T02:54:35.760Z,19.80
2018-07-03T02:57:04.056Z,19.70
2018-07-03T02:59:32.336Z,19.70
2018-07-03T03:02:00.940Z,19.70
2018-07-03T03:04:29.232Z,19.60
2018-07-03T03:06:57.528Z,19.70
2018-07-03T03:09:25.822Z,19.60
2018-07-03T03:11:54.116Z,19.60
2018-07-03T03:14:22.519Z,19.50
2018-07-03T03:16:50.819Z,19.50
2018-07-03T03:19:19.309Z,19.50
2018-07-03T03:21:47.614Z,19.50
2018-07-03T03:24:15.903Z,19.50
2018-07-03T03:29:12.251Z,19.50
2018-07-03T03:31:40.567Z,19.50
2018-07-03T03:34:08.844Z,19.40
2018-07-03T03:36:37.139Z,19.40
2018-07-03T03:39:06.934Z,19.40
2018-07-03T03:41:35.272Z,19.40
2018-07-03T03:44:03.547Z,19.30
2018-07-03T03:46:31.878Z,19.30
2018-07-03T03:49:00.155Z,19.30
2018-07-03T03:51:28.447Z,19.30
2018-07-03T03:53:56.748Z,19.30
2018-07-03T03:56:25.156Z,19.30
2018-07-03T03:58:53.695Z,19.30
2018-07-03T04:01:22.044Z,19.30
2018-07-03T04:03:50.348Z,19.30
2018-07-03T04:06:18.603Z,19.30
2018-07-03T04:08:46.939Z,19.30
2018-07-03T04:11:15.326Z,19.20
2018-07-03T04:13:43.628Z,19.20
2018-07-03T04:16:11.922Z,19.20
2018-07-03T04:18:40.208Z,19.20
2018-07-03T04:21:08.866Z,19.20
2018-07-03T04:23:37.960Z,19.10
2018-07-03T04:26:06.260Z,19.20
2018-07-03T04:28:34.934Z,19.20
2018-07-03T04:31:03.695Z,19.20
2018-07-03T04:33:31.996Z,19.20
2018-07-03T04:36:00.644Z,19.30
2018-07-03T04:38:28.980Z,19.30
2018-07-03T04:40:57.283Z,19.30
2018-07-03T04:43:25.592Z,19.30
2018-07-03T04:45:54.067Z,19.30
2018-07-03T04:48:22.372Z,19.30
2018-07-03T04:50:50.773Z,19.30
2018-07-03T04:53:19.083Z,19.30
2018-07-03T04:55:47.416Z,19.30
2018-07-03T04:58:15.699Z,19.30
2018-07-03T05:00:44.023Z,19.40
2018-07-03T05:03:15.359Z,19.40
2018-07-03T05:05:43.687Z,19.40
2018-07-03T05:08:11.996Z,19.50
2018-07-03T05:10:40.442Z,19.50
2018-07-03T05:13:08.743Z,19.60
2018-07-03T05:15:37.095Z,19.60
2018-07-03T05:18:05.380Z,19.70
2018-07-03T05:20:33.793Z,19.70
2018-07-03T05:23:02.121Z,19.80
2018-07-03T05:25:30.519Z,19.80
2018-07-03T05:27:58.834Z,19.90
2018-07-03T05:30:27.167Z,20.00
2018-07-03T05:32:55.496Z,20.00
2018-07-03T05:35:23.800Z,20.00
2018-07-03T05:37:52.138Z,20.10
2018-07-03T05:40:20.508Z,20.10
2018-07-03T05:42:48.930Z,20.10
2018-07-03T05:45:17.202Z,20.20
2018-07-03T05:47:45.559Z,20.30
2018-07-03T05:50:14.138Z,20.40
2018-07-03T05:52:42.646Z,20.40
2018-07-03T05:55:11.133Z,20.50
2018-07-03T05:57:39.626Z,20.60
2018-07-03T06:00:08.038Z,20.70
2018-07-03T06:02:36.401Z,20.70
2018-07-03T06:05:04.997Z,20.80
2018-07-03T06:07:33.324Z,20.90
2018-07-03T06:10:01.682Z,20.90
2018-07-03T06:12:30.179Z,21.00
2018-07-03T06:14:58.485Z,21.10
2018-07-03T06:17:26.786Z,21.20
2018-07-03T06:19:55.540Z,21.30
2018-07-03T06:22:23.892Z,21.30
2018-07-03T06:24:52.233Z,21.40
2018-07-03T06:27:20.666Z,21.50
2018-07-03T06:29:49.094Z,21.60
2018-07-03T06:32:17.429Z,21.70
2018-07-03T06:34:45.735Z,21.70
2018-07-03T06:37:14.175Z,21.80
2018-07-03T06:39:42.452Z,21.90
2018-07-03T06:42:10.764Z,21.90
2018-07-03T06:44:39.067Z,21.90
2018-07-03T06:47:07.391Z,22.00
2018-07-03T06:49:35.708Z,22.10
2018-07-03T06:52:04.011Z,22.20
2018-07-03T06:54:32.328Z,22.30
2018-07-03T06:57:00.587Z,22.30
2018-07-03T06:59:28.885Z,22.30
2018-07-03T07:01:57.194Z,22.50
2018-07-03T07:04:25.587Z,22.50
2018-07-03T07:06:53.891Z,22.60
2018-07-03T07:09:22.325Z,22.70
2018-07-03T07:11:50.631Z,22.70
2018-07-03T07:14:18.922Z,22.80
2018-07-03T07:16:47.238Z,22.90
2018-07-03T07:19:15.549Z,23.00
2018-07-03T07:21:43.844Z,23.00
2018-07-03T07:24:12.133Z,23.10
2018-07-03T07:26:40.475Z,23.10
2018-07-03T07:29:08.849Z,23.20
2018-07-03T07:31:37.222Z,23.20
2018-07-03T07:34:05.531Z,23.30
2018-07-03T07:36:33.890Z,23.30
2018-07-03T07:39:02.233Z,23.40
2018-07-03T07:41:30.552Z,23.50
2018-07-03T07:43:58.880Z,23.50
2018-07-03T07:48:55.272Z,23.60
2018-07-03T07:51:23.765Z,23.70
2018-07-03T07:53:51.975Z,23.80
2018-07-03T07:56:20.360Z,23.80
2018-07-03T07:58:48.660Z,23.80
2018-07-03T08:01:16.967Z,23.90
2018-07-03T08:03:45.281Z,24.00
2018-07-03T08:06:13.595Z,24.00
2018-07-03T08:08:41.896Z,24.10
2018-07-03T08:11:10.251Z,24.20
2018-07-03T08:13:38.592Z,24.20
2018-07-03T08:16:06.935Z,24.30
2018-07-03T08:18:35.284Z,24.30
2018-07-03T08:21:03.609Z,24.30
2018-07-03T08:23:31.883Z,24.40
2018-07-03T08:26:00.179Z,24.40
2018-07-03T08:28:28.520Z,24.50
2018-07-03T08:30:56.842Z,24.50
2018-07-03T08:33:25.152Z,24.60
2018-07-03T08:35:53.468Z,24.60
2018-07-03T08:38:21.800Z,24.70
2018-07-03T08:40:50.079Z,24.80
2018-07-03T08:43:18.390Z,24.90
2018-07-03T08:45:46.697Z,25.00
2018-07-03T08:48:15.011Z,25.00
2018-07-03T08:50:43.388Z,25.20
2018-07-03T08:53:11.707Z,25.20
2018-07-03T08:55:40.047Z,25.20
2018-07-03T08:58:08.390Z,25.40
2018-07-03T09:00:36.702Z,25.40
2018-07-03T09:03:05.028Z,25.40
2018-07-03T09:05:33.291Z,25.50
2018-07-03T09:08:01.606Z,25.50
2018-07-03T09:10:29.958Z,25.50
2018-07-03T09:12:58.237Z,25.60
2018-07-03T09:15:26.570Z,25.70
2018-07-03T09:17:54.938Z,25.80
2018-07-03T09:20:23.347Z,25.80
2018-07-03T09:22:51.687Z,25.90
2018-07-03T09:25:19.955Z,25.90
2018-07-03T09:27:48.256Z,25.90
2018-07-03T09:30:16.560Z,25.90
2018-07-03T09:32:44.886Z,26.00
2018-07-03T09:35:13.269Z,26.10
2018-07-03T09:37:41.592Z,26.20
2018-07-03T09:40:09.899Z,26.20
2018-07-03T09:42:38.228Z,26.30
2018-07-03T09:45:07.663Z,26.40
2018-07-03T09:50:04.210Z,26.40
2018-07-03T09:52:32.523Z,26.50
2018-07-03T09:55:00.856Z,26.60
2018-07-03T09:57:29.118Z,26.70
2018-07-03T09:59:57.417Z,26.70
2018-07-03T10:02:25.713Z,26.70
2018-07-03T10:07:22.064Z,26.80
2018-07-03T10:09:50.588Z,26.90
2018-07-03T10:12:18.965Z,26.90
2018-07-03T10:14:47.293Z,27.00
2018-07-03T10:19:44.633Z,26.90
2018-07-03T10:22:12.967Z,26.90
2018-07-03T10:24:41.261Z,26.90
2018-07-03T10:27:09.560Z,26.80
2018-07-03T10:29:38.054Z,26.80
2018-07-03T10:32:06.515Z,27.00
2018-07-03T10:34:34.844Z,27.10
2018-07-03T10:37:03.146Z,27.10
2018-07-03T10:39:31.463Z,27.20
2018-07-03T10:41:59.793Z,27.30
2018-07-03T10:44:28.110Z,27.40
2018-07-03T10:46:56.556Z,27.30
2018-07-03T10:49:25.516Z,27.40
2018-07-03T10:51:53.818Z,27.40
2018-07-03T10:54:22.117Z,27.50
2018-07-03T10:56:50.447Z,27.60
2018-07-03T10:59:18.758Z,27.70
2018-07-03T11:01:47.085Z,27.70
2018-07-03T11:04:15.351Z,27.80
2018-07-03T11:06:43.654Z,27.60
2018-07-03T11:09:12.685Z,27.70
2018-07-03T11:11:40.996Z,27.80
2018-07-03T11:14:09.349Z,27.90
2018-07-03T11:16:37.699Z,28.00
2018-07-03T11:19:06.044Z,28.00
2018-07-03T11:21:34.340Z,28.10
2018-07-03T11:24:02.658Z,28.10
2018-07-03T11:26:31.042Z,28.20
2018-07-03T11:28:59.533Z,28.20
2018-07-03T11:31:27.839Z,27.80
2018-07-03T11:36:24.154Z,27.80
2018-07-03T11:38:52.804Z,27.80
2018-07-03T11:41:21.129Z,28.00
2018-07-03T11:43:49.471Z,28.20
2018-07-03T11:46:17.951Z,28.10
2018-07-03T11:48:46.258Z,28.20
2018-07-03T11:51:14.556Z,28.30
2018-07-03T11:53:42.851Z,28.40
2018-07-03T11:56:11.388Z,28.40
2018-07-03T11:58:40.164Z,28.50
2018-07-03T12:01:08.512Z,28.60
2018-07-03T12:03:36.835Z,28.70
2018-07-03T12:06:05.256Z,28.70
2018-07-03T12:11:01.706Z,28.80
2018-07-03T12:15:58.170Z,29.00
2018-07-03T12:18:31.913Z,29.00
2018-07-03T12:21:00.251Z,29.20
2018-07-03T12:23:28.595Z,29.20
2018-07-03T12:25:56.918Z,29.30
2018-07-03T12:28:25.327Z,29.30
2018-07-03T12:30:53.620Z,29.50
2018-07-03T12:33:21.932Z,29.40
2018-07-03T12:35:50.268Z,29.50
2018-07-03T12:38:18.599Z,29.60
2018-07-03T12:40:46.885Z,29.60
2018-07-03T12:43:15.212Z,29.60
2018-07-03T12:45:43.543Z,29.80
2018-07-03T12:48:11.862Z,29.80
2018-07-03T12:50:40.228Z,29.90
2018-07-03T12:53:08.562Z,29.70
2018-07-03T12:55:37.675Z,30.00
2018-07-03T12:58:06.052Z,30.10
2018-07-03T13:00:34.400Z,30.40
2018-07-03T13:03:02.715Z,30.50
2018-07-03T13:05:31.092Z,30.60
2018-07-03T13:07:59.432Z,30.80
2018-07-03T13:10:27.743Z,30.90
2018-07-03T13:12:56.025Z,30.90
2018-07-03T13:15:24.320Z,31.20
2018-07-03T13:17:52.637Z,30.70
2018-07-03T13:20:20.951Z,30.10
2018-07-03T13:22:49.256Z,30.70
2018-07-03T13:25:17.566Z,30.90
2018-07-03T13:27:45.866Z,31.20
2018-07-03T13:31:17.552Z,31.30
2018-07-03T13:33:45.846Z,31.60
2018-07-03T13:36:15.182Z,32.00
2018-07-03T13:38:43.819Z,32.20
2018-07-03T13:41:12.167Z,32.60
2018-07-03T13:43:40.649Z,32.80
2018-07-03T13:46:09.000Z,32.90
2018-07-03T13:48:37.292Z,33.00
2018-07-03T13:51:05.617Z,33.10
2018-07-03T13:53:33.938Z,33.30
2018-07-03T13:56:02.267Z,33.40
2018-07-03T13:58:30.576Z,33.60
2018-07-03T14:00:58.940Z,34.00
2018-07-03T14:03:27.398Z,34.20
2018-07-03T14:05:55.870Z,34.30
2018-07-03T14:08:24.343Z,34.50
2018-07-03T14:10:52.694Z,34.60
2018-07-03T14:13:21.096Z,34.80
2018-07-03T14:15:49.407Z,35.00
2018-07-03T14:18:21.911Z,35.30
2018-07-03T14:20:50.260Z,35.40
2018-07-03T14:23:18.559Z,35.50
2018-07-03T14:25:46.855Z,35.60
2018-07-03T14:28:15.180Z,35.60
2018-07-03T14:30:43.523Z,35.40
2018-07-03T14:33:11.832Z,35.50
2018-07-03T14:35:40.616Z,35.70
2018-07-03T14:38:08.969Z,35.40
2018-07-03T14:40:37.281Z,35.30
2018-07-03T14:43:05.740Z,35.40
2018-07-03T14:45:34.048Z,35.70
2018-07-03T14:48:02.371Z,36.10
2018-07-03T14:50:30.670Z,36.50
2018-07-03T14:52:59.002Z,36.80
2018-07-03T14:55:27.288Z,36.70
2018-07-03T14:57:55.591Z,37.10
2018-07-03T15:00:23.929Z,36.90
2018-07-03T15:02:52.295Z,37.30
2018-07-03T15:05:20.712Z,37.50
2018-07-03T15:07:49.024Z,37.80
2018-07-03T15:10:17.359Z,37.90
2018-07-03T15:12:45.736Z,38.20
2018-07-03T15:15:14.033Z,38.10
2018-07-03T15:17:42.362Z,38.20
2018-07-03T15:20:10.643Z,38.10
2018-07-03T15:22:38.998Z,38.00
2018-07-03T15:25:07.298Z,38.30
2018-07-03T15:27:35.600Z,38.60
2018-07-03T15:30:04.619Z,38.20
2018-07-03T15:32:33.240Z,38.10
2018-07-03T15:35:01.577Z,37.70
2018-07-03T15:40:04.693Z,38.10
2018-07-03T15:42:32.968Z,38.20
2018-07-03T15:45:06.607Z,37.60
2018-07-03T15:47:35.241Z,37.90
2018-07-03T15:50:03.939Z,38.60
2018-07-03T15:52:32.742Z,38.20
2018-07-03T15:55:01.041Z,39.20
2018-07-03T15:57:29.328Z,39.60
2018-07-03T15:59:57.876Z,40.00
2018-07-03T16:02:26.376Z,39.90
2018-07-03T16:05:06.496Z,40.00
2018-07-03T16:09:48.978Z,40.80
2018-07-03T16:12:17.367Z,41.70
2018-07-03T16:14:45.636Z,42.40
2018-07-03T16:17:13.963Z,42.50
2018-07-03T16:19:47.755Z,43.00
2018-07-03T16:22:16.117Z,42.80
2018-07-03T16:24:44.430Z,42.30
2018-07-03T16:27:12.726Z,41.70
2018-07-03T16:29:41.055Z,40.40
2018-07-03T16:32:09.345Z,38.80
2018-07-03T16:34:37.674Z,38.20
2018-07-03T16:37:06.106Z,37.60
2018-07-03T16:39:34.403Z,36.80
2018-07-03T16:42:02.749Z,36.40
2018-07-03T16:44:31.030Z,36.30
2018-07-03T16:46:59.349Z,35.90
2018-07-03T16:49:28.467Z,35.70
2018-07-03T16:51:56.782Z,35.50
2018-07-03T16:54:25.066Z,35.30
2018-07-03T16:56:53.430Z,35.10
2018-07-03T16:59:21.751Z,34.90
2018-07-03T17:01:50.072Z,34.60
2018-07-03T17:04:18.390Z,34.50
2018-07-03T17:06:46.813Z,34.20
2018-07-03T17:09:15.131Z,33.90
2018-07-03T17:11:43.456Z,33.80
2018-07-03T17:14:11.968Z,33.70
2018-07-03T17:16:40.682Z,33.40
2018-07-03T17:19:14.459Z,33.40
2018-07-03T17:21:42.802Z,33.20
2018-07-03T17:24:11.114Z,33.30
2018-07-03T17:26:39.436Z,33.20
2018-07-03T17:29:07.847Z,32.90
2018-07-03T17:31:36.336Z,32.80
2018-07-03T17:34:04.758Z,32.60
2018-07-03T17:36:32.983Z,32.30
2018-07-03T17:39:12.963Z,32.40
2018-07-03T17:41:52.997Z,32.40
2018-07-03T17:45:31.831Z,32.20
2018-07-03T17:48:01.591Z,32.10
2018-07-03T17:50:30.122Z,31.70
2018-07-03T17:52:58.622Z,31.70
2018-07-03T17:55:27.179Z,31.60
2018-07-03T17:57:55.858Z,31.40
2018-07-03T18:00:24.199Z,31.30
2018-07-03T18:02:52.768Z,31.40
2018-07-03T18:05:21.317Z,31.20
2018-07-03T18:07:50.011Z,31.10
2018-07-03T18:10:18.351Z,31.10
2018-07-03T18:12:46.651Z,31.00
2018-07-03T18:15:15.227Z,30.90
2018-07-03T18:17:43.516Z,30.80
2018-07-03T18:20:11.898Z,30.70
2018-07-03T18:22:40.481Z,30.60
2018-07-03T18:25:08.752Z,30.60
2018-07-03T18:27:37.524Z,30.40
2018-07-03T18:30:06.940Z,30.40
2018-07-03T18:32:35.325Z,30.40
2018-07-03T18:35:03.635Z,30.30
2018-07-03T18:37:31.943Z,30.30
2018-07-03T18:40:00.248Z,30.20
2018-07-03T18:42:28.565Z,30.10
2018-07-03T18:44:56.922Z,30.10
2018-07-03T18:47:25.396Z,30.00
2018-07-03T18:49:53.608Z,30.00
2018-07-03T18:52:21.895Z,29.80
2018-07-03T18:54:50.198Z,29.70
2018-07-03T18:59:46.538Z,29.60
2018-07-03T19:02:14.840Z,29.60
2018-07-03T19:04:43.714Z,29.40
2018-07-03T19:07:12.001Z,29.30
2018-07-03T19:09:40.354Z,29.30
2018-07-03T19:12:08.712Z,29.30
2018-07-03T19:14:37.002Z,29.20
2018-07-03T19:17:05.353Z,29.10
2018-07-03T19:19:33.677Z,28.90
2018-07-03T19:22:01.995Z,28.90
2018-07-03T19:24:30.299Z,28.80
2018-07-03T19:26:58.616Z,28.70
2018-07-03T19:29:27.054Z,28.60
2018-07-03T19:31:55.486Z,28.50
2018-07-03T19:34:24.027Z,28.50
2018-07-03T19:36:53.538Z,28.40
2018-07-03T19:39:21.899Z,28.20
2018-07-03T19:41:50.195Z,28.20
2018-07-03T19:44:18.495Z,28.20
2018-07-03T19:46:46.767Z,28.30
2018-07-03T19:49:15.174Z,28.20
2018-07-03T19:51:43.415Z,28.10
2018-07-03T19:54:11.693Z,28.00
2018-07-03T19:56:40.000Z,27.90
2018-07-03T19:59:08.364Z,27.90
2018-07-03T20:01:36.666Z,27.80
2018-07-03T20:04:05.049Z,27.70
2018-07-03T20:06:33.498Z,27.60
2018-07-03T20:09:01.875Z,27.60
2018-07-03T20:11:30.205Z,27.50
2018-07-03T20:13:58.490Z,27.50
2018-07-03T20:16:26.916Z,27.40
2018-07-03T20:18:55.248Z,27.40
2018-07-03T20:21:23.593Z,27.30
2018-07-03T20:23:51.940Z,27.20
2018-07-03T20:26:20.327Z,27.20
2018-07-03T20:28:48.635Z,27.10
2018-07-03T20:31:17.002Z,27.00
2018-07-03T20:33:45.323Z,27.00
2018-07-03T20:36:13.671Z,26.90
2018-07-03T20:38:41.983Z,26.90
2018-07-03T20:41:10.735Z,26.80
2018-07-03T20:43:40.354Z,26.80
2018-07-03T20:46:09.443Z,26.70
2018-07-03T20:48:37.896Z,26.60
2018-07-03T20:51:06.217Z,26.60
2018-07-03T20:53:34.521Z,26.60
2018-07-03T20:56:02.849Z,26.50
2018-07-03T20:58:31.206Z,26.40
2018-07-03T21:00:59.768Z,26.30
2018-07-03T21:03:28.219Z,26.30
2018-07-03T21:08:24.597Z,26.10
2018-07-03T21:10:52.915Z,26.00
2018-07-03T21:13:21.253Z,26.00
2018-07-03T21:15:49.534Z,25.90
2018-07-03T21:18:17.912Z,25.80
2018-07-03T21:20:46.389Z,25.80
2018-07-03T21:23:14.825Z,25.80
2018-07-03T21:25:43.146Z,25.70
2018-07-03T21:28:11.660Z,25.50
2018-07-03T21:30:39.956Z,25.50
2018-07-03T21:33:08.281Z,25.40
2018-07-03T21:35:36.736Z,25.40
2018-07-03T21:40:33.295Z,25.20
2018-07-03T21:43:01.649Z,25.10
2018-07-03T21:45:29.948Z,25.00
2018-07-03T21:47:58.442Z,24.90
2018-07-03T21:50:26.739Z,24.80
2018-07-03T21:52:55.516Z,24.80
2018-07-03T21:55:23.874Z,24.70
2018-07-03T21:57:52.181Z,24.70
2018-07-03T22:00:39.848Z,24.50
2018-07-03T22:03:09.238Z,24.30
2018-07-03T22:05:38.498Z,24.40
2018-07-03T22:08:07.519Z,24.30
2018-07-03T22:10:35.924Z,24.20
2018-07-03T22:13:04.368Z,24.40
2018-07-03T22:15:32.985Z,24.40
2018-07-03T22:18:01.302Z,24.40
2018-07-03T22:20:29.663Z,24.30
2018-07-03T22:22:57.924Z,24.20
2018-07-03T22:25:26.376Z,24.10
2018-07-03T22:27:55.018Z,24.10
2018-07-03T22:30:23.368Z,23.90
2018-07-03T22:35:20.189Z,23.50
2018-07-03T22:37:48.491Z,23.70
2018-07-03T22:40:16.949Z,23.70
2018-07-03T22:42:45.244Z,23.70
2018-07-03T22:45:13.738Z,23.70
2018-07-03T22:47:42.064Z,23.60
2018-07-03T22:50:10.412Z,23.60
2018-07-03T22:52:38.779Z,23.50
2018-07-03T22:55:07.401Z,23.50
2018-07-03T22:57:35.699Z,23.50
2018-07-03T23:00:04.012Z,23.50
2018-07-03T23:02:32.314Z,23.50
2018-07-03T23:05:00.639Z,23.40
2018-07-03T23:07:29.248Z,23.40
2018-07-03T23:09:57.582Z,23.40
2018-07-03T23:12:25.914Z,23.40
2018-07-03T23:14:54.201Z,23.30
2018-07-03T23:17:22.485Z,23.30
2018-07-03T23:19:50.820Z,23.30
2018-07-03T23:22:19.163Z,23.20
2018-07-03T23:24:47.459Z,23.00
2018-07-03T23:27:15.796Z,23.00
2018-07-03T23:29:44.132Z,23.10
2018-07-03T23:32:12.888Z,23.10
2018-07-03T23:34:41.550Z,23.10
2018-07-03T23:37:10.380Z,23.10
2018-07-03T23:39:38.819Z,23.00
2018-07-03T23:42:07.142Z,23.00
2018-07-03T23:44:35.457Z,23.00
2018-07-03T23:47:15.154Z,22.90
2018-07-03T23:49:55.066Z,22.90
2018-07-03T23:52:34.961Z,22.80
2018-07-03T23:55:14.662Z,22.70
2018-07-03T23:57:54.406Z,22.70
